• Join FlightAware (Why Join?)
  • Login
  • US Flag 
11:45AM EDT


 

Airport Tracker/Info


-or-


 

Live Flight TrackerFlight Track Log ✈ SWA2236 ✈ 10-Jul-2013 ✈ KABQ - KOAK

Flight Track Log - Related Links

Times and Time Zones

All times are in EDT time to prevent confusion due to time zone crossing. See the SWA2236 flight status page for this flight to view local times or setup timezone preferences in your user account.

Time Position Orientation Groundspeed Altitude Reporting Facility
EDT Latitude Longitude Course Direction KTS MPH feet Rate Location/Type
09:17AM 35.0661 -106.5142 68° East 270 311 7,700  Level Albuquerque Center
09:18AM 35.1047 -106.5706 310° West 255 293 9,800 1,560 Climbing Albuquerque Center
09:19AM 35.1203 -106.6717 281° West 282 325 10,900 1,620 Climbing Albuquerque Center
09:20AM 35.1397 -106.7894 281° West 344 396 13,100 2,700 Climbing Albuquerque Center
09:21AM 35.1611 -106.9356 280° West 374 430 16,500 2,640 Climbing Albuquerque Center
09:22AM 35.1786 -107.0617 280° West 379 436 18,500 2,220 Climbing Albuquerque Center
09:23AM 35.1969 -107.1967 279° West 410 472 21,100 2,400 Climbing Albuquerque Center
09:24AM 35.2161 -107.3350 280° West 419 482 23,400 2,040 Climbing Albuquerque Center
09:25AM 35.2347 -107.4764 279° West 420 483 25,300 1,860 Climbing Albuquerque Center
09:26AM 35.2567 -107.6406 279° West 432 497 27,200 1,740 Climbing Albuquerque Center
09:27AM 35.2758 -107.7867 279° West 446 513 28,900 1,500 Climbing Albuquerque Center
09:28AM 35.2961 -107.9325 280° West 452 520 30,300 1,620 Climbing Albuquerque Center
09:29AM 35.3183 -108.1061 279° West 459 528 32,300 1,800 Climbing Albuquerque Center
09:30AM 35.3369 -108.2544 279° West 459 528 34,000 1,620 Climbing Albuquerque Center
09:31AM 35.3561 -108.3997 279° West 453 521 35,700 1,620 Climbing Albuquerque Center
09:32AM 35.3761 -108.5669 278° West 446 513 37,400 1,080 Climbing Albuquerque Center
09:33AM 35.3953 -108.7097 279° West 443 510 38,000 240 Climbing Albuquerque Center
09:34AM 35.4119 -108.8539 278° West 443 510 38,000  Level Albuquerque Center
09:35AM 35.4325 -109.0211 279° West 443 510 38,000  Level Albuquerque Center
09:36AM 35.4500 -109.1644 279° West 443 510 38,000  Level Albuquerque Center
09:37AM 35.4667 -109.3064 278° West 440 506 38,000  Level Albuquerque Center
09:38AM 35.4869 -109.4719 279° West 437 503 38,000  Level Albuquerque Center
09:39AM 35.5019 -109.6122 278° West 434 499 38,000  Level Albuquerque Center
09:40AM 35.5197 -109.7747 278° West 431 496 38,000  Level Albuquerque Center
09:42AM 35.5350 -109.9147 278° West 431 496 38,000  Level Albuquerque Center
09:43AM 35.5497 -110.0542 277° West 431 496 38,000  Level Albuquerque Center
09:44AM 35.5694 -110.2189 278° West 433 498 38,000  Level Albuquerque Center
09:45AM 35.5844 -110.3611 277° West 437 503 38,000  Level Albuquerque Center
09:46AM 35.6000 -110.5008 278° West 434 499 38,000  Level Albuquerque Center
09:47AM 35.6167 -110.6644 277° West 433 498 38,000  Level Albuquerque Center
09:48AM 35.6317 -110.8053 278° West 433 498 38,000  Level Albuquerque Center
09:49AM 35.6492 -110.9706 277° West 434 499 38,000  Level Albuquerque Center
09:50AM 35.6653 -111.1119 278° West 435 501 38,000  Level Albuquerque Center
09:51AM 35.6811 -111.2542 278° West 437 503 38,000  Level Albuquerque Center
09:52AM 35.6958 -111.4194 276° West 435 501 38,000  Level Albuquerque Center
09:53AM 35.7094 -111.5442 278° West 437 503 38,000  Level Albuquerque Center
09:54AM 35.7267 -111.7186 277° West 434 499 38,000  Level Albuquerque Center
09:55AM 35.7411 -111.8625 277° West 429 494 38,000  Level Albuquerque Center
09:56AM 35.7556 -112.0083 277° West 432 497 38,000  Level Albuquerque Center
09:57AM 35.7717 -112.1819 277° West 431 496 38,000  Level Los Angeles Center
09:58AM 35.7856 -112.3269 277° West 432 497 38,000  Level Los Angeles Center
09:59AM 35.7992 -112.4733 277° West 434 499 38,000  Level Los Angeles Center
10:00AM 35.8122 -112.6192 276° West 434 499 38,000  Level Los Angeles Center
10:01AM 35.8258 -112.7656 277° West 436 502 38,000  Level Los Angeles Center
10:02AM 35.8425 -112.9422 277° West 438 504 38,000  Level Los Angeles Center
10:03AM 35.8550 -113.0886 276° West 434 499 38,000  Level Los Angeles Center
10:04AM 35.8692 -113.2639 276° West 433 498 38,000  Level Los Angeles Center
10:05AM 35.8817 -113.4103 276° West 436 502 38,000  Level Los Angeles Center
10:06AM 35.8942 -113.5544 276° West 431 496 38,000  Level Los Angeles Center
10:07AM 35.9069 -113.7286 275° West 421 484 38,000  Level Los Angeles Center
10:08AM 35.9211 -113.8764 277° West 430 495 38,000  Level Los Angeles Center
10:10AM 35.9319 -114.0222 275° West 427 491 38,000  Level Los Angeles Center
10:11AM 35.9431 -114.1686 275° West 427 491 38,000  Level Los Angeles Center
10:12AM 35.9542 -114.3153 275° West 428 493 38,000  Level Los Angeles Center
10:13AM 35.9672 -114.4903 275° West 427 491 38,000  Level Los Angeles Center
10:14AM 35.9792 -114.6375 276° West 428 493 38,000  Level Los Angeles Center
10:15AM 35.9917 -114.8131 275° West 427 491 38,000  Level Los Angeles Center
10:16AM 36.0336 -114.9500 291° West 426 490 38,000  Level Los Angeles Center
10:17AM 36.0908 -115.0822 298° West 432 497 38,000  Level Los Angeles Center
10:18AM 36.1486 -115.2136 299° West 434 499 38,000  Level Los Angeles Center
10:19AM 36.2058 -115.3456 298° West 435 501 38,000  Level Los Angeles Center
10:20AM 36.2633 -115.4781 298° West 436 502 38,000  Level Los Angeles Center
10:21AM 36.3242 -115.6236 297° West 448 516 38,000  Level Los Angeles Center
10:22AM 36.3850 -115.7644 298° West 446 513 38,000  Level Los Angeles Center
10:23AM 36.4461 -115.9064 298° West 443 510 38,000  Level Los Angeles Center
10:24AM 36.5044 -116.0431 298° West 447 514 38,000  Level Los Angeles Center
10:25AM 36.5617 -116.1786 298° West 444 511 38,000  Level Los Angeles Center
10:26AM 36.6189 -116.3142 298° West 443 510 38,000  Level Los Angeles Center
10:27AM 36.6886 -116.4781 298° West 445 512 38,000  Level Los Angeles Center
10:28AM 36.7350 -116.6197 292° West 443 510 38,000  Level Los Angeles Center
10:29AM 36.7778 -116.7636 290° West 443 510 38,000  Level Los Angeles Center
10:30AM 36.8208 -116.9083 290° West 443 510 38,000  Level Los Angeles Center
10:31AM 36.8642 -117.0525 291° West 441 507 38,000  Level Los Angeles Center
10:32AM 36.8883 -117.1389 289° West 441 507 38,000  Level Oakland Center
10:33AM 36.9308 -117.2833 290° West 442 509 38,000  Level Oakland Center
10:34AM 36.9736 -117.4281 290° West 441 507 38,000  Level Oakland Center
10:35AM 37.0150 -117.5731 290° West 441 507 38,000  Level Oakland Center
10:36AM 37.0561 -117.7167 290° West 439 505 38,000  Level Oakland Center
10:37AM 37.0992 -117.8606 291° West 440 506 38,000  Level Oakland Center
10:38AM 37.1394 -118.0031 290° West 435 501 38,000  Level Oakland Center
10:39AM 37.1803 -118.1447 290° West 432 497 38,000  Level Oakland Center
10:40AM 37.2203 -118.2867 290° West 431 496 38,000 -540 Level Oakland Center
10:41AM 37.2686 -118.4561 290° West 430 495 37,000 -900 Descending Oakland Center
10:42AM 37.3019 -118.5750 289° West 436 502 36,200 -540 Descending Oakland Center
10:43AM 37.3494 -118.7475 289° West 441 507 36,000 -120 Descending Oakland Center
10:44AM 37.3892 -118.8911 289° West 435 501 36,000  Level Oakland Center
10:45AM 37.4286 -119.0378 289° West 441 507 36,000  Level Oakland Center
10:46AM 37.4694 -119.1819 290° West 440 506 36,000  Level Oakland Center
10:47AM 37.5086 -119.3272 289° West 439 505 36,000  Level Oakland Center
10:48AM 37.5494 -119.4756 289° West 436 502 36,000 -240 Level Oakland Center
10:49AM 37.5892 -119.6228 289° West 441 507 35,600 -720 Descending Oakland Center
10:50AM 37.6278 -119.7667 289° West 436 502 34,600 -1,080 Descending Oakland Center
10:51AM 37.6669 -119.9106 289° West 433 498 33,500 -1,080 Descending Oakland Center
10:52AM 37.7042 -120.0489 289° West 417 480 32,500 -1,260 Descending Oakland Center
10:53AM 37.7406 -120.1861 289° West 412 474 31,000 -1,740 Descending Oakland Center
10:54AM 37.7750 -120.3175 288° West 394 453 29,000 -2,760 Descending Oakland Center
10:55AM 37.8158 -120.4775 288° West 398 458 25,500 -3,180 Descending Oakland Center
10:56AM 37.8517 -120.6147 288° West 407 468 22,600 -2,760 Descending Oakland Center
10:57AM 37.8667 -120.7167 281° West 403 464 20,900 -1,680 Descending Northern Cal TRACON
10:58AM 37.8500 -120.8500 261° West 354 407 19,700 -1,080 Descending Northern Cal TRACON
10:59AM 37.8333 -120.9667 260° West 328 377 18,700 -1,320 Descending Northern Cal TRACON
11:00AM 37.8000 -121.0500 243° Southwest 323 372 17,300 -1,620 Descending Northern Cal TRACON
11:01AM 37.7833 -121.1500 258° West 328 377 15,700 -1,680 Descending Northern Cal TRACON
11:02AM 37.7500 -121.2500 247° West 317 365 14,100 -1,380 Descending Northern Cal TRACON
11:03AM 37.7333 -121.3500 258° West 283 326 13,100 -1,020 Descending Northern Cal TRACON
11:04AM 37.7167 -121.4167 252° West 247 284 12,200 -1,320 Descending Northern Cal TRACON
11:05AM 37.7000 -121.5167 258° West 251 289 10,600 -1,560 Descending Northern Cal TRACON
11:06AM 37.6667 -121.5833 238° Southwest 256 295 9,300 -1,200 Descending Northern Cal TRACON
11:07AM 37.6500 -121.6667 256° West 240 276 8,400 -900 Descending Northern Cal TRACON
11:08AM 37.6333 -121.7500 256° West 212 244 7,600 -1,080 Descending Northern Cal TRACON
11:09AM 37.6167 -121.8167 253° West 212 244 6,300 -1,260 Descending Northern Cal TRACON
11:10AM 37.6000 -121.8833 253° West 220 253 5,100 -1,020 Descending Northern Cal TRACON
11:11AM 37.5833 -121.9667 256° West 217 250 4,300 -840 Descending Northern Cal TRACON
11:12AM 37.5833 -122.0167 270° West 199 229 3,500 -840 Descending Northern Cal TRACON
11:13AM 37.6000 -122.0667 293° West 186 214 2,800 -780 Descending Northern Cal TRACON
11:14AM 37.6333 -122.1167 310° West 156 180 2,000 -840 Descending Northern Cal TRACON
11:15AM 37.6667 -122.1500 322° Northwest 144 166 1,300 -780 Descending Northern Cal TRACON
11:16AM 37.6833 -122.1833 302° West 136 157 500 -780 Descending Northern Cal TRACON
11:19AM 37.7167 -122.2167 270° West  Level FlightAware Approximate
11:26AM 37.7213 -122.2207 270° West  Level Estimated